Time;durP1;ratioP1;P1;durP2;ratioP2;P2;SDS_P1;SDS_P2;PMS_P1;PMS_P2;Temp;Humidity;BMP_temperature;BMP_pressure;BME280_temperature;BME280_humidity;BME280_pressure;Samples;Min_cycle;Max_cycle;Signal;HPM_P1;HPM_P2
2021/03/03 00:03:08;;;;;;;236.97;94.57;;;;;;;2.69;66.53;102348.94;5101601;56;1140513;-78
2021/03/03 00:08:13;;;;;;;249.27;95.03;;;;;;;2.56;67.20;102353.08;5099776;56;1140719;-78
2021/03/03 00:13:18;;;;;;;218.37;85.30;;;;;;;2.54;67.31;102354.84;5118102;56;1140672;-79
2021/03/03 00:18:24;;;;;;;216.95;85.97;;;;;;;2.58;67.49;102344.78;5137995;55;1141055;-77
2021/03/03 00:23:30;;;;;;;142.80;58.70;;;;;;;2.59;67.16;102347.81;5138806;55;1140595;-79
2021/03/03 00:28:35;;;;;;;118.77;53.30;;;;;;;2.31;66.41;102336.89;5123592;55;1140585;-78
2021/03/03 00:33:41;;;;;;;152.07;58.50;;;;;;;2.07;66.65;102340.27;5129694;55;1140837;-77
2021/03/03 00:38:47;;;;;;;119.47;55.07;;;;;;;2.06;67.13;102342.91;5129060;55;1141228;-79
2021/03/03 00:43:52;;;;;;;204.00;96.30;;;;;;;2.15;67.92;102337.55;5115848;56;1140666;-77
2021/03/03 00:48:57;;;;;;;223.30;107.43;;;;;;;2.26;68.06;102333.06;5134914;56;1141079;-79
2021/03/03 00:54:04;;;;;;;244.30;102.37;;;;;;;2.31;67.96;102327.31;5116279;56;1143032;-79
2021/03/03 00:59:09;;;;;;;241.33;88.63;;;;;;;2.19;66.95;102324.02;5137559;55;1143003;-80
2021/03/03 01:04:15;;;;;;;248.77;92.87;;;;;;;2.14;67.37;102324.55;5173693;55;1140957;-79
2021/03/03 01:09:22;;;;;;;249.92;95.03;;;;;;;2.07;67.05;102322.01;5162319;55;1140952;-78
2021/03/03 01:14:27;;;;;;;235.65;93.50;;;;;;;1.87;66.76;102315.31;5162387;55;1141178;-78
2021/03/03 01:19:33;;;;;;;234.80;91.30;;;;;;;1.87;67.47;102314.01;5158456;55;1140857;-78
2021/03/03 01:24:39;;;;;;;230.17;88.47;;;;;;;1.88;67.45;102298.78;5102700;55;1141557;-79
2021/03/03 01:29:44;;;;;;;265.80;93.93;;;;;;;1.88;67.51;102291.82;5122678;55;1140772;-77
2021/03/03 01:34:50;;;;;;;199.23;75.13;;;;;;;1.63;66.78;102299.11;5109327;56;1140627;-79
2021/03/03 01:39:55;;;;;;;184.90;71.27;;;;;;;1.52;66.95;102291.86;5123832;55;1140619;-79
2021/03/03 01:45:01;;;;;;;219.22;83.05;;;;;;;1.40;67.46;102291.54;5112967;55;1140475;-78
2021/03/03 01:50:09;;;;;;;209.13;78.17;;;;;;;1.46;67.99;102289.31;5103808;55;1141073;-78
2021/03/03 01:55:15;;;;;;;202.87;75.17;;;;;;;1.53;68.06;102284.43;5090137;55;1140393;-79
2021/03/03 02:00:21;;;;;;;203.90;76.37;;;;;;;1.54;67.86;102273.13;5102164;55;1140406;-78
2021/03/03 02:05:28;;;;;;;229.60;80.47;;;;;;;1.59;68.01;102270.47;5125301;56;1150350;-79
2021/03/03 02:11:01;;;;;;;192.06;71.04;;;;;;;1.57;67.87;102265.27;5091681;56;1140514;-79
2021/03/03 02:16:09;;;;;;;152.83;59.57;;;;;;;1.58;67.87;102263.08;5107107;56;1140485;-79
2021/03/03 02:21:42;;;;;;;151.37;56.95;;;;;;;1.58;67.74;102259.61;5102758;55;1140519;-79
2021/03/03 02:26:54;;;;;;;130.83;52.73;;;;;;;1.54;67.87;102261.39;5108804;55;1140525;-77
2021/03/03 02:32:00;;;;;;;145.40;56.47;;;;;;;1.45;67.59;102239.36;5106014;55;1140735;-78
2021/03/03 02:37:07;;;;;;;134.37;54.20;;;;;;;1.37;67.55;102244.68;5115403;55;1140599;-77
2021/03/03 02:42:14;;;;;;;132.40;54.43;;;;;;;1.38;67.72;102235.08;5132184;55;1140959;-77
2021/03/03 02:47:20;;;;;;;136.33;53.90;;;;;;;1.19;67.04;102233.60;5114479;55;1141198;-79
2021/03/03 02:52:27;;;;;;;146.60;57.07;;;;;;;0.94;67.12;102228.64;5095193;55;1248600;-78
2021/03/03 02:57:33;;;;;;;148.75;56.28;;;;;;;0.97;67.94;102224.70;5130661;55;1141272;-78
2021/03/03 03:02:41;;;;;;;150.27;55.60;;;;;;;1.02;68.16;102215.11;5117423;55;1141395;-78
2021/03/03 03:07:51;;;;;;;166.00;61.20;;;;;;;1.04;67.89;102217.27;5161980;55;1140955;-79
2021/03/03 03:13:00;;;;;;;165.33;59.93;;;;;;;0.99;67.90;102224.69;5123404;55;1140970;-77
2021/03/03 03:18:13;;;;;;;140.43;54.87;;;;;;;0.86;67.43;102222.66;5108595;56;1140904;-77
2021/03/03 03:23:21;;;;;;;182.10;69.60;;;;;;;0.80;67.79;102224.45;5105056;55;1141176;-78
2021/03/03 03:28:28;;;;;;;185.30;70.20;;;;;;;0.51;67.60;102228.20;5171213;55;1140665;-78
2021/03/03 03:33:34;;;;;;;198.75;69.58;;;;;;;0.27;68.06;102229.28;5105274;55;1140748;-77
2021/03/03 03:38:40;;;;;;;215.25;80.15;;;;;;;0.26;68.65;102227.98;5131155;55;1141078;-79
2021/03/03 03:43:47;;;;;;;232.10;72.70;;;;;;;0.30;69.37;102223.19;5143659;55;1140994;-77
2021/03/03 03:48:53;;;;;;;219.57;57.67;;;;;;;0.38;69.96;102216.17;5114310;56;1141081;-76
2021/03/03 03:53:58;;;;;;;200.67;44.83;;;;;;;0.56;70.65;102218.62;5151496;55;1141255;-77
2021/03/03 03:59:04;;;;;;;156.93;35.97;;;;;;;0.69;71.02;102211.55;5118261;55;1141140;-79
2021/03/03 04:04:09;;;;;;;155.27;36.47;;;;;;;0.75;71.19;102202.39;5116824;55;1141063;-79
2021/03/03 04:09:15;;;;;;;128.33;33.40;;;;;;;0.77;70.88;102197.13;5130575;55;1140959;-77
2021/03/03 04:14:20;;;;;;;227.90;62.30;;;;;;;0.76;71.21;102205.42;5123350;55;1141056;-76
2021/03/03 04:19:26;;;;;;;212.00;69.07;;;;;;;0.52;70.40;102254.66;5163367;56;1140971;-77
2021/03/03 04:24:31;;;;;;;210.57;67.82;;;;;;;0.22;70.47;102203.72;5130788;56;1141186;-77
2021/03/03 04:29:37;;;;;;;210.70;40.70;;;;;;;0.31;71.78;102198.43;5186216;55;1141459;-77
2021/03/03 04:34:42;;;;;;;151.07;26.45;;;;;;;0.41;72.40;102198.38;5138135;55;1141265;-76
2021/03/03 04:39:48;;;;;;;67.93;24.40;;;;;;;0.47;72.99;102193.95;5122959;56;1141400;-76
2021/03/03 04:44:53;;;;;;;137.77;26.47;;;;;;;0.59;73.00;102191.70;5146135;55;1139086;-79
2021/03/03 04:49:59;;;;;;;87.47;25.07;;;;;;;0.56;72.62;102186.52;5137835;55;1140938;-79
2021/03/03 04:55:06;;;;;;;85.97;24.37;;;;;;;0.58;73.24;102178.25;5145883;55;1138953;-78
2021/03/03 05:00:12;;;;;;;72.10;23.23;;;;;;;0.53;73.82;102170.92;5088239;56;1138854;-78
2021/03/03 05:05:19;;;;;;;60.60;25.33;;;;;;;0.44;73.37;102165.37;5099913;56;1139363;-78
2021/03/03 05:10:24;;;;;;;64.60;23.07;;;;;;;0.38;73.14;102165.42;5078320;56;1139138;-80
2021/03/03 05:15:30;;;;;;;94.77;25.90;;;;;;;0.38;73.14;102165.42;5099438;56;1139071;-74
2021/03/03 05:20:35;;;;;;;98.70;24.92;;;;;;;0.33;74.01;102163.29;5077909;56;1138784;-82
2021/03/03 05:25:41;;;;;;;96.53;26.80;;;;;;;0.27;73.31;102163.36;5060650;56;1138957;-79
2021/03/03 05:30:47;;;;;;;112.17;31.68;;;;;;;0.19;74.35;102150.41;5094648;55;1139082;-77
2021/03/03 05:35:54;;;;;;;86.40;29.35;;;;;;;0.21;74.48;102146.05;5090302;56;1141108;-75
2021/03/03 05:40:59;;;;;;;90.70;28.47;;;;;;;0.22;74.85;102138.67;5091366;56;1138606;-76
2021/03/03 05:46:06;;;;;;;106.27;31.80;;;;;;;0.22;75.04;102143.02;5090932;56;1138392;-79
2021/03/03 05:51:12;;;;;;;172.67;55.90;;;;;;;0.18;74.70;102146.08;5090860;56;1140433;-76
2021/03/03 05:56:22;;;;;;;200.97;79.80;;;;;;;0.13;74.70;102142.67;5090629;56;1140484;-79
2021/03/03 06:01:28;;;;;;;130.40;51.48;;;;;;;0.10;74.83;102136.62;5097929;56;1140709;-78
2021/03/03 06:06:34;;;;;;;118.70;36.65;;;;;;;0.14;74.70;102139.20;5069527;56;1140970;-76
2021/03/03 06:11:40;;;;;;;109.10;32.40;;;;;;;0.16;74.92;102143.06;5153334;56;1140605;-79
2021/03/03 06:16:46;;;;;;;95.12;36.98;;;;;;;0.16;74.81;102138.72;5153043;56;1140685;-75
2021/03/03 06:21:52;;;;;;;102.23;36.47;;;;;;;0.19;75.09;102141.73;5153216;56;1138376;-77
2021/03/03 06:27:02;;;;;;;86.55;31.23;;;;;;;0.17;74.83;102131.78;5153245;56;1140492;-78
2021/03/03 06:32:07;;;;;;;76.83;27.40;;;;;;;0.17;75.10;102133.94;5153880;56;1138356;-79
2021/03/03 06:37:13;;;;;;;100.43;35.97;;;;;;;0.15;74.97;102127.05;5153591;56;1138525;-75
2021/03/03 06:42:28;;;;;;;90.50;28.50;;;;;;;0.14;75.54;102127.92;5153645;56;1140442;-77
2021/03/03 06:47:33;;;;;;;63.50;26.93;;;;;;;0.05;75.63;102122.34;5153855;56;1138564;-77
2021/03/03 06:52:42;;;;;;;64.37;30.30;;;;;;;-0.03;75.14;102122.87;5122524;56;1138685;-78
2021/03/03 06:57:47;;;;;;;174.43;83.53;;;;;;;0.02;75.83;102119.77;5153613;56;1140860;-78
2021/03/03 07:02:53;;;;;;;99.33;41.83;;;;;;;0.11;76.09;102119.70;5160330;55;1140655;-76
2021/03/03 07:08:04;;;;;;;109.83;47.63;;;;;;;0.17;75.87;102112.27;5189305;55;1138556;-77
2021/03/03 07:13:10;;;;;;;63.73;25.40;;;;;;;0.13;75.69;102102.35;5173012;55;1141015;-76
2021/03/03 07:18:39;;;;;;;51.93;22.80;;;;;;;0.02;75.81;102100.27;5153345;55;1138973;-78
2021/03/03 07:23:52;;;;;;;49.00;21.87;;;;;;;0.05;76.20;102102.84;5153373;56;1138922;-77
2021/03/03 07:28:59;;;;;;;32.93;17.57;;;;;;;-0.04;76.28;102097.30;5153626;56;1139185;-79
2021/03/03 07:34:09;;;;;;;71.27;28.17;;;;;;;-0.02;76.93;102093.39;5155495;55;1141030;-77
2021/03/03 07:39:15;;;;;;;63.80;32.20;;;;;;;-0.04;76.80;102097.30;5174930;55;1141238;-75
2021/03/03 07:44:23;;;;;;;77.87;34.33;;;;;;;0.12;77.57;102091.95;5162550;55;1141189;-75
2021/03/03 07:49:31;;;;;;;75.50;31.67;;;;;;;0.27;76.96;102089.20;5160156;56;1256691;-75
2021/03/03 07:54:37;;;;;;;131.35;52.95;;;;;;;0.42;77.63;102090.78;5162419;56;1139114;-76
2021/03/03 07:59:45;;;;;;;100.60;44.48;;;;;;;0.56;78.22;102091.05;5162137;56;1141018;-77
2021/03/03 08:05:03;;;;;;;145.50;60.73;;;;;;;0.73;77.42;102090.87;5161656;56;1141244;-76
2021/03/03 08:10:20;;;;;;;136.30;57.50;;;;;;;0.87;77.84;102084.19;5161787;56;1141035;-77
2021/03/03 08:15:49;;;;;;;106.80;50.70;;;;;;;1.02;78.34;102077.03;5112104;55;1140996;-77
2021/03/03 08:21:19;;;;;;;115.27;52.70;;;;;;;1.18;78.14;102063.36;5036809;57;1141273;-75
2021/03/03 08:26:29;;;;;;;58.53;28.30;;;;;;;1.41;78.15;102057.34;5053096;57;1140567;-75
2021/03/03 08:31:38;;;;;;;134.22;57.85;;;;;;;1.65;78.85;102052.65;5053676;57;1138626;-74
2021/03/03 08:36:48;;;;;;;58.87;28.92;;;;;;;2.03;80.02;102041.54;5053610;57;1140618;-77
2021/03/03 08:41:54;;;;;;;66.30;32.83;;;;;;;2.52;80.25;102040.17;5054126;57;1138552;-76
2021/03/03 08:47:00;;;;;;;66.17;36.87;;;;;;;2.94;79.28;102047.55;5043345;57;1138513;-78
2021/03/03 08:52:12;;;;;;;76.67;34.20;;;;;;;3.20;79.12;102028.70;5005553;57;1138997;-79
2021/03/03 08:57:37;;;;;;;53.50;27.03;;;;;;;3.46;78.95;102023.70;5047410;57;1138558;-77
2021/03/03 09:02:43;;;;;;;91.63;48.38;;;;;;;3.79;78.48;102008.07;5068407;57;1138921;-75
2021/03/03 09:07:48;;;;;;;68.55;34.65;;;;;;;4.10;78.48;102008.12;5067992;57;1138964;-78
2021/03/03 09:12:53;;;;;;;75.27;37.00;;;;;;;4.30;77.93;102009.72;5068242;57;1138869;-77
2021/03/03 09:17:59;;;;;;;68.67;32.67;;;;;;;4.61;78.45;102008.40;5068236;57;1138895;-78
2021/03/03 09:23:04;;;;;;;59.20;33.00;;;;;;;5.01;78.35;101988.88;5068117;57;1140977;-75
2021/03/03 09:28:10;;;;;;;68.97;33.73;;;;;;;5.18;76.46;101978.27;5067779;57;1139383;-78
2021/03/03 09:33:15;;;;;;;70.30;33.80;;;;;;;5.37;76.51;101982.89;5068260;57;1139256;-78
2021/03/03 09:38:21;;;;;;;53.17;28.53;;;;;;;5.66;76.90;101969.66;5072903;57;1139109;-78
2021/03/03 09:43:26;;;;;;;70.47;34.97;;;;;;;6.00;76.24;101966.30;5132168;56;1141093;-75
2021/03/03 09:48:32;;;;;;;67.83;36.23;;;;;;;6.26;75.70;101961.41;5091631;56;1141252;-78
2021/03/03 09:53:37;;;;;;;48.65;23.42;;;;;;;6.42;75.27;101965.64;5090762;56;1138999;-77
2021/03/03 09:58:43;;;;;;;69.13;30.63;;;;;;;6.33;74.31;101960.28;5091207;56;1139145;-80
2021/03/03 10:03:49;;;;;;;83.30;40.12;;;;;;;6.46;75.11;101961.14;5091526;56;1140978;-79
2021/03/03 10:08:54;;;;;;;60.17;32.33;;;;;;;6.82;75.91;101946.59;5091238;56;1140998;-83
2021/03/03 10:14:08;;;;;;;81.93;39.57;;;;;;;7.17;75.59;101940.39;5091610;56;1138668;-81
2021/03/03 10:19:14;;;;;;;70.00;34.83;;;;;;;7.45;75.22;101929.58;5091387;56;1139125;-78
2021/03/03 10:24:22;;;;;;;81.83;36.00;;;;;;;7.84;74.62;101922.59;5091430;56;1140971;-81
2021/03/03 10:29:44;;;;;;;57.30;25.67;;;;;;;8.19;74.07;101913.58;5088242;56;1141229;-79
2021/03/03 10:34:45;;;;;;;50.58;25.60;;;;;;;8.36;72.06;101907.97;5090348;56;1141193;-75
2021/03/03 10:39:52;;;;;;;54.17;28.90;;;;;;;8.52;71.87;101896.25;5090138;56;1140799;-81
2021/03/03 10:44:58;;;;;;;63.03;32.57;;;;;;;8.74;70.56;101894.28;5111254;56;1141109;-78
2021/03/03 10:50:06;;;;;;;54.30;28.50;;;;;;;8.94;69.89;101879.28;5160704;56;1138850;-79
2021/03/03 10:55:24;;;;;;;50.70;23.47;;;;;;;9.22;69.24;101873.02;5160921;56;1138889;-78
2021/03/03 11:00:30;;;;;;;67.47;32.50;;;;;;;9.51;67.45;101860.50;5160739;56;1140902;-82
2021/03/03 11:05:36;;;;;;;74.50;36.57;;;;;;;9.79;66.19;101851.97;5110228;55;1140942;-80
2021/03/03 11:10:41;;;;;;;65.10;30.90;;;;;;;9.95;64.39;101842.76;5076875;57;1140967;-82
2021/03/03 11:15:47;;;;;;;60.52;27.17;;;;;;;10.20;62.49;101827.32;5094755;56;1141255;-82
2021/03/03 11:20:52;;;;;;;66.73;32.10;;;;;;;10.41;61.42;101816.00;5152390;56;1143043;-80
2021/03/03 11:26:00;;;;;;;60.60;31.57;;;;;;;10.64;62.42;101805.45;5152388;56;1143034;-79
2021/03/03 11:31:05;;;;;;;62.97;31.50;;;;;;;10.87;62.29;101804.10;5152298;56;1143048;-82
2021/03/03 11:36:11;;;;;;;73.80;35.52;;;;;;;11.11;61.04;101781.50;5152628;56;1143310;-82
2021/03/03 11:41:16;;;;;;;81.17;40.03;;;;;;;11.38;61.43;101781.63;5152479;56;1143259;-79
2021/03/03 11:46:24;;;;;;;60.53;29.80;;;;;;;11.62;60.74;101767.33;5153429;56;1143175;-83
2021/03/03 11:51:29;;;;;;;61.83;30.70;;;;;;;11.95;61.03;101762.59;5156065;55;1143090;-79
2021/03/03 11:56:35;;;;;;;59.80;31.77;;;;;;;12.26;58.10;101747.37;5156083;56;1150845;-83
2021/03/03 12:01:40;;;;;;;59.50;29.85;;;;;;;12.51;54.89;101742.17;5176006;56;1143148;-78
2021/03/03 12:06:46;;;;;;;50.25;25.88;;;;;;;12.76;53.82;101729.91;5183065;55;1143002;-78
2021/03/03 12:11:51;;;;;;;43.42;22.90;;;;;;;12.95;54.30;101718.42;5184469;55;1143091;-82
2021/03/03 12:16:57;;;;;;;44.23;22.17;;;;;;;13.19;48.82;101707.92;5196597;55;1143031;-79
2021/03/03 12:22:02;;;;;;;33.60;16.87;;;;;;;13.35;47.14;101693.94;5185839;55;1142549;-80
2021/03/03 12:27:08;;;;;;;36.60;20.70;;;;;;;13.48;47.80;101689.93;5187017;55;1142712;-81
2021/03/03 12:32:14;;;;;;;35.47;18.97;;;;;;;13.60;45.11;101683.73;5186477;55;1142632;-83
2021/03/03 12:37:19;;;;;;;45.67;24.40;;;;;;;13.61;44.65;101677.46;5197391;55;1142827;-80
2021/03/03 12:42:25;;;;;;;32.67;15.53;;;;;;;13.67;46.52;101655.77;5166706;55;1142611;-81
2021/03/03 12:47:30;;;;;;;32.13;15.43;;;;;;;13.80;43.49;101644.60;5174768;56;1143101;-75
2021/03/03 12:52:36;;;;;;;32.10;16.80;;;;;;;13.88;43.10;101643.57;5175411;56;1142988;-75
2021/03/03 12:57:41;;;;;;;32.60;16.67;;;;;;;13.92;44.21;101637.52;5175328;56;1142825;-76
2021/03/03 13:02:48;;;;;;;36.28;18.07;;;;;;;14.04;45.80;101631.32;5175059;56;1142866;-75
2021/03/03 13:07:53;;;;;;;35.73;17.80;;;;;;;14.19;46.23;101618.68;5175101;56;1142719;-76
2021/03/03 13:12:59;;;;;;;28.90;15.40;;;;;;;14.31;44.24;101617.27;5175189;56;1142597;-76
2021/03/03 13:18:05;;;;;;;26.73;13.13;;;;;;;14.42;44.71;101604.02;5175185;56;1142908;-76
2021/03/03 13:23:10;;;;;;;27.77;14.33;;;;;;;14.53;43.22;101599.67;5174523;56;1142752;-75
2021/03/03 13:28:16;;;;;;;28.63;12.20;;;;;;;14.59;42.88;101585.91;5174916;56;1142693;-75
2021/03/03 13:33:22;;;;;;;33.87;14.83;;;;;;;14.63;41.97;101576.72;5174939;56;1142596;-76
2021/03/03 13:38:27;;;;;;;32.47;16.60;;;;;;;14.70;42.00;101572.11;5175795;56;1143268;-76
2021/03/03 13:43:33;;;;;;;45.53;20.00;;;;;;;14.71;43.85;101556.98;5175641;56;1142557;-76
2021/03/03 13:48:38;;;;;;;50.50;20.73;;;;;;;14.79;44.13;101547.92;5229489;55;1142722;-76
2021/03/03 13:53:44;;;;;;;42.87;19.77;;;;;;;14.87;45.08;101548.15;5264220;55;1142571;-76
2021/03/03 13:58:50;;;;;;;45.38;18.23;;;;;;;14.92;43.54;101549.13;5263846;55;1142637;-76
2021/03/03 14:03:55;;;;;;;39.20;19.40;;;;;;;14.90;43.72;101530.59;5264413;55;1142571;-74
2021/03/03 14:09:01;;;;;;;34.97;20.17;;;;;;;14.99;44.41;101526.34;5264149;55;1143117;-74
2021/03/03 14:14:06;;;;;;;32.43;19.20;;;;;;;15.00;43.42;101515.56;5178988;55;1142770;-75
2021/03/03 14:19:11;;;;;;;33.13;16.63;;;;;;;14.95;43.71;101504.45;5175493;55;1143084;-75
2021/03/03 14:24:17;;;;;;;35.67;18.90;;;;;;;14.93;42.72;101489.55;5176122;55;1143300;-76
2021/03/03 14:29:23;;;;;;;39.53;19.80;;;;;;;14.89;44.20;101490.77;5175962;55;1143541;-76
2021/03/03 14:34:29;;;;;;;28.65;16.62;;;;;;;14.93;44.51;101479.75;5175953;55;1143277;-76
2021/03/03 14:39:34;;;;;;;40.10;20.60;;;;;;;14.95;44.95;101480.96;5176083;55;1143185;-76
2021/03/03 14:44:40;;;;;;;41.50;20.67;;;;;;;14.91;45.23;101476.36;5176211;55;1143258;-76
2021/03/03 14:49:45;;;;;;;34.70;18.42;;;;;;;14.84;44.54;101464.97;5176463;55;1143071;-78
2021/03/03 14:54:51;;;;;;;54.23;22.30;;;;;;;14.81;44.79;101442.61;5163465;55;1143021;-76
2021/03/03 14:59:56;;;;;;;33.37;16.87;;;;;;;14.76;45.51;101437.16;5163063;55;1143280;-79
2021/03/03 15:05:01;;;;;;;41.73;21.67;;;;;;;14.85;46.04;101430.71;5162558;55;1142913;-75
2021/03/03 15:10:08;;;;;;;40.73;20.73;;;;;;;14.89;45.52;101410.86;5161858;55;1143069;-78
2021/03/03 15:15:14;;;;;;;51.60;25.93;;;;;;;14.84;45.66;101412.55;5162806;55;1143120;-80
2021/03/03 15:20:20;;;;;;;60.47;30.47;;;;;;;14.72;44.27;101402.41;5162415;55;1143474;-84
2021/03/03 15:25:25;;;;;;;88.82;52.98;;;;;;;14.67;44.73;101397.94;5162259;55;1143340;-77
2021/03/03 15:30:31;;;;;;;63.40;37.80;;;;;;;15.36;45.25;101390.95;5161818;55;1142949;-78
2021/03/03 15:35:39;;;;;;;44.90;28.40;;;;;;;16.27;42.90;101383.09;5179719;55;1143363;-78
2021/03/03 15:40:45;;;;;;;48.23;31.35;;;;;;;15.93;42.29;101377.17;5162348;55;1143113;-78
2021/03/03 15:45:51;;;;;;;38.08;21.48;;;;;;;15.18;43.89;101383.14;5161699;55;1143086;-76
2021/03/03 15:50:59;;;;;;;68.83;34.73;;;;;;;14.64;45.00;101370.26;5144412;55;1143216;-74
2021/03/03 15:56:03;;;;;;;101.53;40.50;;;;;;;14.27;45.72;101368.81;5162593;55;1142872;-78
2021/03/03 16:01:09;;;;;;;192.37;72.37;;;;;;;14.24;47.20;101361.91;5162483;55;1144657;-80
2021/03/03 16:06:14;;;;;;;119.97;56.90;;;;;;;14.57;46.65;101355.73;5162308;55;1144861;-79
2021/03/03 16:11:20;;;;;;;109.60;50.57;;;;;;;14.33;46.36;101343.05;5162134;55;1144718;-79
2021/03/03 16:16:28;;;;;;;121.07;53.33;;;;;;;13.98;47.33;101339.19;5162542;55;1145188;-80
2021/03/03 16:21:34;;;;;;;188.87;96.20;;;;;;;13.66;47.95;101339.05;5162276;55;1145222;-82
2021/03/03 16:26:39;;;;;;;108.17;51.10;;;;;;;13.37;48.56;101324.87;5162056;55;1145360;-79
2021/03/03 16:31:45;;;;;;;512.00;218.48;;;;;;;13.17;49.20;101318.03;5162040;55;1145125;-85
2021/03/03 16:36:50;;;;;;;426.73;234.87;;;;;;;13.01;49.65;101311.67;5173663;55;1147226;-79
2021/03/03 16:41:56;;;;;;;214.08;89.97;;;;;;;12.86;49.77;101311.01;5162118;56;1147275;-79
2021/03/03 16:47:02;;;;;;;240.67;89.40;;;;;;;12.63;49.92;101302.59;5162191;56;1145270;-80
2021/03/03 16:52:08;;;;;;;251.00;109.83;;;;;;;12.47;50.33;101300.69;5061920;56;1145319;-83
2021/03/03 16:57:14;;;;;;;318.37;160.40;;;;;;;12.29;50.58;101306.38;5065951;57;1146909;-77
2021/03/03 17:02:19;;;;;;;314.23;183.43;;;;;;;12.01;51.16;101293.88;5064033;57;1146858;-83
2021/03/03 17:07:25;;;;;;;536.90;332.23;;;;;;;12.01;51.16;101293.88;5063217;57;1146917;-82
2021/03/03 17:12:30;;;;;;;300.80;188.60;;;;;;;11.91;51.13;101302.97;5063919;57;1147169;-81
2021/03/03 17:17:39;;;;;;;216.13;179.97;;;;;;;11.71;51.31;101298.19;5063976;57;1146910;-80
2021/03/03 17:22:44;;;;;;;218.90;140.03;;;;;;;11.45;51.58;101290.73;5063983;57;1147194;-81
2021/03/03 17:27:50;;;;;;;198.60;134.30;;;;;;;11.23;52.04;101290.02;5063478;57;1146970;-80
2021/03/03 17:32:55;;;;;;;222.63;97.05;;;;;;;11.15;52.47;101288.38;5064012;57;1146774;-80
2021/03/03 17:38:01;;;;;;;230.73;107.83;;;;;;;11.10;52.63;101283.86;5063814;57;1144738;-77
2021/03/03 17:43:07;;;;;;;288.50;130.90;;;;;;;11.05;52.82;101274.05;5062735;57;1147517;-77
2021/03/03 17:48:14;;;;;;;236.20;105.47;;;;;;;11.03;53.32;101266.68;5062957;57;1147064;-76
2021/03/03 17:53:20;;;;;;;192.30;82.03;;;;;;;10.99;53.23;101266.54;5063511;57;1146698;-77
2021/03/03 17:58:26;;;;;;;127.57;61.93;;;;;;;10.88;53.26;101255.33;5052381;57;1144866;-80
2021/03/03 18:03:31;;;;;;;139.77;65.80;;;;;;;10.67;53.25;101254.98;5098722;56;1144753;-76
2021/03/03 18:08:36;;;;;;;229.87;81.43;;;;;;;10.49;53.63;101248.25;5160244;55;1144793;-77
2021/03/03 18:13:42;;;;;;;210.87;77.80;;;;;;;10.36;53.92;101251.33;5128574;56;1145331;-77
2021/03/03 18:18:47;;;;;;;185.47;70.10;;;;;;;10.30;54.32;101245.95;5024296;56;1144863;-81
2021/03/03 18:23:53;;;;;;;162.92;68.05;;;;;;;10.26;54.61;101240.48;5010995;56;1144888;-78
2021/03/03 18:28:58;;;;;;;118.70;53.60;;;;;;;10.26;54.58;101242.27;5081184;56;1144786;-78
2021/03/03 18:34:04;;;;;;;103.93;48.40;;;;;;;10.03;54.31;101235.33;5113295;56;1144981;-75
2021/03/03 18:39:09;;;;;;;86.43;43.20;;;;;;;9.78;54.79;101231.20;5146497;55;1145095;-79
2021/03/03 18:44:15;;;;;;;106.07;50.40;;;;;;;9.57;55.26;101214.08;5241442;55;1138867;-80
2021/03/03 18:49:21;;;;;;;100.97;48.90;;;;;;;9.39;55.77;101216.06;5240694;55;1140903;-83
2021/03/03 18:54:26;;;;;;;275.67;135.67;;;;;;;9.23;56.29;101215.30;5241088;55;1140905;-77
2021/03/03 18:59:32;;;;;;;92.83;44.10;;;;;;;9.10;56.50;101204.64;5242107;55;1143005;-80
2021/03/03 19:04:38;;;;;;;61.50;32.30;;;;;;;8.92;56.71;101199.15;5243805;55;1138606;-81
2021/03/03 19:09:44;;;;;;;92.35;46.68;;;;;;;8.72;57.17;101196.36;5224845;55;1138623;-74
2021/03/03 19:14:49;;;;;;;93.40;39.88;;;;;;;8.66;57.69;101197.59;5186772;56;1138445;-76
2021/03/03 19:19:55;;;;;;;55.75;26.00;;;;;;;8.65;58.36;101185.81;5156187;56;1138482;-82
2021/03/03 19:25:01;;;;;;;45.07;22.77;;;;;;;8.65;58.36;101185.81;5170280;55;1139027;-81
2021/03/03 19:30:08;;;;;;;61.40;30.07;;;;;;;8.66;58.59;101180.45;5212028;55;1138360;-78
2021/03/03 19:35:14;;;;;;;65.43;29.30;;;;;;;8.65;58.89;101172.16;5212090;55;1138415;-79
2021/03/03 19:40:19;;;;;;;164.17;55.50;;;;;;;8.65;58.91;101162.09;5211998;55;1138526;-79
2021/03/03 19:45:25;;;;;;;184.97;80.83;;;;;;;8.67;58.81;101157.58;5211733;55;1140727;-78
2021/03/03 19:50:30;;;;;;;103.07;47.40;;;;;;;8.68;58.73;101157.95;5211920;55;1140506;-80
2021/03/03 19:55:36;;;;;;;215.40;98.73;;;;;;;8.58;58.64;101151.04;5211812;55;1140570;-73
2021/03/03 20:00:48;;;;;;;336.84;157.68;;;;;;;8.47;58.96;101153.47;5215846;55;1140733;-76
2021/03/03 20:05:51;;;;;;;135.22;60.15;;;;;;;8.37;59.25;101145.73;5162627;55;1142730;-80
2021/03/03 20:10:57;;;;;;;144.13;64.42;;;;;;;8.30;59.46;101136.44;5087084;56;1140699;-79
2021/03/03 20:16:03;;;;;;;54.20;26.70;;;;;;;8.25;59.64;101138.52;5077775;56;1141009;-79
2021/03/03 20:21:08;;;;;;;52.13;22.93;;;;;;;8.21;59.65;101135.20;5077335;57;1138350;-79
2021/03/03 20:26:14;;;;;;;60.10;29.80;;;;;;;8.15;60.01;101128.95;5077432;57;1138657;-78
2021/03/03 20:31:20;;;;;;;51.23;23.63;;;;;;;8.08;60.17;101121.04;5077644;57;1138512;-81
2021/03/03 20:36:28;;;;;;;42.00;21.03;;;;;;;8.02;60.45;101126.18;5077654;57;1139296;-77
2021/03/03 20:41:35;;;;;;;38.17;17.33;;;;;;;7.95;60.62;101119.55;5078115;56;1138971;-76
2021/03/03 20:46:40;;;;;;;47.37;22.77;;;;;;;7.90;61.12;101116.35;5118816;55;1139061;-78
2021/03/03 20:51:49;;;;;;;37.00;17.23;;;;;;;7.82;61.29;101114.60;5098679;55;1139151;-77
2021/03/03 20:56:55;;;;;;;36.28;16.97;;;;;;;7.81;61.74;101108.95;5092230;55;1138908;-77
2021/03/03 21:02:00;;;;;;;42.17;20.77;;;;;;;7.73;61.91;101090.97;5104694;55;1138939;-79
2021/03/03 21:07:06;;;;;;;47.67;20.47;;;;;;;7.76;61.91;101092.59;5082247;56;1138650;-78
2021/03/03 21:12:12;;;;;;;45.73;21.53;;;;;;;7.75;62.09;101086.94;5097262;55;1138378;-78
2021/03/03 21:17:17;;;;;;;36.40;16.60;;;;;;;7.73;62.21;101083.08;5097696;55;1138627;-76
2021/03/03 21:22:23;;;;;;;33.50;16.93;;;;;;;7.70;62.18;101076.66;5077546;56;1138429;-76
2021/03/03 21:27:28;;;;;;;37.50;17.27;;;;;;;7.66;62.45;101067.70;5077626;56;1138458;-75
2021/03/03 21:32:34;;;;;;;26.20;13.83;;;;;;;7.67;62.63;101057.55;5077415;56;1140700;-77
2021/03/03 21:37:41;;;;;;;41.10;17.83;;;;;;;7.65;63.02;101057.63;5077732;56;1138656;-76
2021/03/03 21:42:46;;;;;;;28.80;14.70;;;;;;;7.64;63.28;101044.09;5077701;56;1138417;-77
2021/03/03 21:47:52;;;;;;;28.67;14.28;;;;;;;7.65;63.51;101030.45;5077694;56;1138407;-80
2021/03/03 21:52:58;;;;;;;27.00;13.13;;;;;;;7.64;64.16;101035.34;5077960;56;1138602;-75
2021/03/03 21:58:07;;;;;;;30.30;17.13;;;;;;;7.66;64.28;101021.16;5078457;56;1140591;-80
2021/03/03 22:03:10;;;;;;;30.10;16.93;;;;;;;7.73;64.65;101015.08;5081335;56;1138489;-77
2021/03/03 22:08:17;;;;;;;30.90;17.37;;;;;;;7.75;64.41;101007.48;5091483;56;1138535;-75
2021/03/03 22:13:23;;;;;;;39.93;18.63;;;;;;;7.76;64.26;100996.48;5091518;56;1138464;-76
2021/03/03 22:18:29;;;;;;;38.42;18.35;;;;;;;7.78;64.06;100988.50;5091223;56;1138511;-76
2021/03/03 22:23:35;;;;;;;38.73;19.40;;;;;;;7.80;63.86;100980.86;5091207;56;1140588;-78
2021/03/03 22:28:40;;;;;;;35.90;18.10;;;;;;;7.80;63.78;100980.86;5091363;56;1140562;-76
2021/03/03 22:33:46;;;;;;;43.47;18.30;;;;;;;7.78;63.79;100977.97;5071752;56;1138740;-79
2021/03/03 22:38:51;;;;;;;35.53;18.93;;;;;;;7.75;63.75;100977.20;5091681;56;1138704;-77
2021/03/03 22:43:57;;;;;;;42.85;20.92;;;;;;;7.71;63.81;100958.56;5091675;56;1138591;-78